Time;durP1;ratioP1;P1;durP2;ratioP2;P2;SDS_P1;SDS_P2;PMS_P1;PMS_P2;Temp;Humidity;BMP_temperature;BMP_pressure;BME280_temperature;BME280_humidity;BME280_pressure;Samples;Min_cycle;Max_cycle;Signal;HPM_P1;HPM_P2
2021/04/28 00:01:06;;;;;;;32.78;19.90;;;;;;;0.30;65.81;98268.35;1828717;78;20868;-64
2021/04/28 00:03:33;;;;;;;27.87;18.55;;;;;;;0.30;66.01;98271.42;1828771;78;21409;-64
2021/04/28 00:06:01;;;;;;;29.87;19.23;;;;;;;0.27;66.27;98269.77;1828792;78;20979;-64
2021/04/28 00:08:29;;;;;;;27.20;19.30;;;;;;;0.26;66.31;98265.84;1828763;78;21195;-64
2021/04/28 00:10:59;;;;;;;28.77;19.40;;;;;;;0.25;66.35;98262.31;1828660;78;21182;-64
2021/04/28 00:13:30;;;;;;;27.42;18.90;;;;;;;0.23;66.48;98258.86;1828693;78;20916;-64
2021/04/28 00:16:01;;;;;;;29.10;17.30;;;;;;;0.21;66.29;98259.84;1828768;78;21046;-64
2021/04/28 00:18:31;;;;;;;29.87;18.02;;;;;;;0.20;66.37;98257.63;1828760;78;20999;-63
2021/04/28 00:20:59;;;;;;;27.32;16.57;;;;;;;0.18;66.40;98256.83;1828738;78;21113;-64
2021/04/28 00:23:29;;;;;;;23.15;16.52;;;;;;;0.17;66.65;98256.41;1828626;78;20895;-64
2021/04/28 00:25:57;;;;;;;26.00;16.67;;;;;;;0.15;66.69;98255.59;1828758;78;21338;-63
2021/04/28 00:28:26;;;;;;;25.52;16.90;;;;;;;0.16;66.54;98253.38;1828654;78;21350;-63
2021/04/28 00:30:53;;;;;;;27.90;17.48;;;;;;;0.14;66.64;98255.17;1828767;78;20963;-62
2021/04/28 00:33:21;;;;;;;23.22;16.48;;;;;;;0.14;66.54;98251.21;1828682;78;21520;-62
2021/04/28 00:35:50;;;;;;;23.47;17.27;;;;;;;0.12;66.65;98251.72;1828661;78;20975;-63
2021/04/28 00:38:20;;;;;;;25.97;19.05;;;;;;;0.10;66.72;98250.91;1828751;78;21555;-63
2021/04/28 00:40:48;;;;;;;27.10;18.35;;;;;;;0.07;66.92;98249.22;1828693;78;20912;-62
2021/04/28 00:43:17;;;;;;;23.73;17.35;;;;;;;0.05;66.97;98252.37;1822969;78;20865;-63
2021/04/28 00:45:46;;;;;;;24.63;18.05;;;;;;;0.03;67.14;98251.98;1783803;79;21405;-64
2021/04/28 00:48:14;;;;;;;21.70;15.83;;;;;;;0.01;67.16;98249.86;1814766;79;20920;-64
2021/04/28 00:50:47;;;;;;;22.95;17.00;;;;;;;-0.02;67.32;98246.41;1814844;79;20968;-64
2021/04/28 00:53:19;;;;;;;24.65;18.07;;;;;;;-0.03;67.47;98249.09;1783144;79;20880;-63
2021/04/28 00:55:47;;;;;;;30.85;18.95;;;;;;;-0.03;67.46;98247.77;1814935;79;20908;-64
2021/04/28 00:58:15;;;;;;;29.25;19.92;;;;;;;-0.07;67.80;98245.65;1814811;79;21407;-64
2021/04/28 01:00:43;;;;;;;25.32;18.40;;;;;;;-0.08;68.03;98241.30;1814864;79;21007;-64
2021/04/28 01:03:13;;;;;;;27.67;19.52;;;;;;;-0.07;68.28;98248.76;1814835;79;20932;-63
2021/04/28 01:05:41;;;;;;;25.65;18.60;;;;;;;-0.09;68.40;98249.27;1814845;79;20971;-63
2021/04/28 01:08:10;;;;;;;23.50;19.10;;;;;;;-0.10;68.34;98244.41;1814811;79;21453;-64
2021/04/28 01:10:39;;;;;;;26.33;18.73;;;;;;;-0.09;68.30;98249.27;1814888;79;22282;-64
2021/04/28 01:13:08;;;;;;;26.77;18.57;;;;;;;-0.09;68.32;98249.27;1814825;79;21029;-63
2021/04/28 01:15:38;;;;;;;23.57;18.42;;;;;;;-0.09;68.34;98240.87;1814813;79;20908;-63
2021/04/28 01:18:16;;;;;;;24.43;18.10;;;;;;;-0.09;68.30;98248.80;1814812;79;20865;-65
2021/04/28 01:20:44;;;;;;;29.02;19.15;;;;;;;-0.11;68.34;98244.03;1814854;79;20873;-65
2021/04/28 01:23:13;;;;;;;24.63;18.85;;;;;;;-0.11;68.39;98240.50;1814741;79;21421;-64
2021/04/28 01:25:43;;;;;;;24.30;18.95;;;;;;;-0.14;68.41;98236.62;1814779;79;20928;-64
2021/04/28 01:28:21;;;;;;;28.40;20.45;;;;;;;-0.16;68.61;98240.63;1782955;79;20999;-64
2021/04/28 01:31:11;;;;;;;29.90;21.65;;;;;;;-0.19;68.75;98238.97;1814414;79;38840;-64
2021/04/28 01:33:47;;;;;;;29.98;24.75;;;;;;;-0.20;68.91;98237.69;1814826;79;21540;-64
2021/04/28 01:36:22;;;;;;;31.37;21.17;;;;;;;-0.22;69.19;98236.84;1814757;79;20908;-63
2021/04/28 01:38:56;;;;;;;23.85;19.65;;;;;;;-0.23;69.25;98233.81;1814870;79;21404;-63
2021/04/28 01:41:26;;;;;;;30.75;22.58;;;;;;;-0.22;69.20;98233.77;1814904;79;21330;-64
2021/04/28 01:43:58;;;;;;;32.35;24.20;;;;;;;-0.22;69.31;98230.24;1822490;78;20864;-64
2021/04/28 01:46:26;;;;;;;45.40;33.35;;;;;;;-0.22;69.33;98228.48;1828643;78;21452;-64
2021/04/28 01:48:55;;;;;;;53.52;36.63;;;;;;;-0.20;69.31;98227.13;1828689;78;21346;-64
2021/04/28 01:51:25;;;;;;;51.25;36.42;;;;;;;-0.21;69.22;98218.78;1828640;78;20951;-64
2021/04/28 01:53:54;;;;;;;45.50;32.75;;;;;;;-0.21;69.16;98216.15;1828655;78;20967;-63
2021/04/28 01:56:22;;;;;;;42.08;31.48;;;;;;;-0.22;69.17;98213.09;1828589;78;20975;-63
2021/04/28 01:59:08;;;;;;;40.08;27.85;;;;;;;-0.25;69.33;98210.10;1828689;78;20903;-63
2021/04/28 02:01:54;;;;;;;37.85;28.25;;;;;;;-0.26;69.40;98212.78;1826883;78;21383;-63
2021/04/28 02:04:26;;;;;;;34.15;25.02;;;;;;;-0.28;69.40;98209.33;1828410;78;20896;-64
2021/04/28 02:06:54;;;;;;;32.78;21.07;;;;;;;-0.30;69.44;98206.73;1828657;78;20959;-64
2021/04/28 02:09:22;;;;;;;24.67;19.67;;;;;;;-0.32;69.59;98203.72;1828691;78;20963;-64
2021/04/28 02:11:55;;;;;;;20.97;18.07;;;;;;;-0.32;69.76;98202.40;1828959;78;20904;-63
2021/04/28 02:14:25;;;;;;;21.00;18.50;;;;;;;-0.33;69.78;98205.94;1828678;78;21135;-64
2021/04/28 02:16:56;;;;;;;31.23;20.00;;;;;;;-0.32;69.71;98206.36;1808895;78;20932;-63
2021/04/28 02:19:26;;;;;;;31.97;24.80;;;;;;;-0.32;69.79;98201.08;1828656;78;20916;-63
2021/04/28 02:21:55;;;;;;;32.35;23.55;;;;;;;-0.33;69.74;98192.74;1828668;78;21324;-63
2021/04/28 02:24:25;;;;;;;35.33;25.72;;;;;;;-0.33;69.75;98195.37;1827261;78;20900;-63
2021/04/28 02:26:57;;;;;;;35.10;23.70;;;;;;;-0.33;69.68;98196.70;1828862;78;21345;-63
2021/04/28 02:29:27;;;;;;;32.00;22.05;;;;;;;-0.35;69.66;98189.29;1828882;78;20892;-63
2021/04/28 02:31:56;;;;;;;24.80;18.35;;;;;;;-0.37;69.61;98199.89;1828781;78;20905;-64
2021/04/28 02:34:27;;;;;;;23.77;19.37;;;;;;;-0.42;69.62;98190.78;1827220;78;20872;-64
2021/04/28 02:37:00;;;;;;;23.00;17.10;;;;;;;-0.44;69.78;98201.84;1796382;78;20923;-64
2021/04/28 02:40:00;;;;;;;27.73;17.98;;;;;;;-0.47;70.03;98198.41;1828849;78;21245;-64
2021/04/28 02:42:32;;;;;;;30.70;22.98;;;;;;;-0.49;70.27;98195.84;1823491;78;20955;-63
2021/04/28 02:45:07;;;;;;;24.72;20.60;;;;;;;-0.50;70.42;98198.52;1816701;77;20956;-63
2021/04/28 02:47:38;;;;;;;23.73;18.57;;;;;;;-0.49;70.42;98197.59;1814895;79;20869;-63
2021/04/28 02:50:10;;;;;;;24.87;18.42;;;;;;;-0.51;70.52;98192.83;1759840;79;20916;-63
2021/04/28 02:52:48;;;;;;;25.25;17.95;;;;;;;-0.50;70.73;98197.20;1814973;79;21505;-63
2021/04/28 02:55:16;;;;;;;27.05;21.23;;;;;;;-0.50;70.67;98198.05;1814926;79;20932;-63
2021/04/28 02:57:46;;;;;;;30.82;23.20;;;;;;;-0.48;70.69;98194.91;1814918;79;20939;-63
2021/04/28 03:00:19;;;;;;;29.60;24.40;;;;;;;-0.47;70.71;98197.97;1814889;79;20928;-63
2021/04/28 03:02:50;;;;;;;39.98;29.55;;;;;;;-0.46;70.63;98197.51;1815010;79;20936;-64
2021/04/28 03:05:20;;;;;;;26.52;22.17;;;;;;;-0.45;70.63;98201.42;1814977;79;21360;-63
2021/04/28 03:08:03;;;;;;;26.02;19.85;;;;;;;-0.47;70.58;98197.08;1785940;79;20999;-63
2021/04/28 03:10:31;;;;;;;35.17;21.57;;;;;;;-0.48;70.64;98201.51;1815011;79;21397;-64
2021/04/28 03:13:00;;;;;;;25.40;21.48;;;;;;;-0.47;70.62;98199.72;1814782;79;21020;-62
2021/04/28 03:15:30;;;;;;;26.37;19.77;;;;;;;-0.46;70.86;98198.36;1815014;79;21505;-63
2021/04/28 03:18:04;;;;;;;30.27;21.90;;;;;;;-0.45;70.79;98194.83;1814996;79;22380;-63
2021/04/28 03:20:35;;;;;;;22.75;20.17;;;;;;;-0.44;70.81;98192.61;1815043;79;20892;-63
2021/04/28 03:23:06;;;;;;;27.55;21.25;;;;;;;-0.42;70.78;98200.02;1814919;79;21334;-62
2021/04/28 03:25:34;;;;;;;33.90;22.13;;;;;;;-0.39;70.84;98203.89;1784104;79;20981;-63
2021/04/28 03:28:04;;;;;;;35.38;24.98;;;;;;;-0.35;70.85;98201.17;1814921;79;21358;-63
2021/04/28 03:30:35;;;;;;;31.15;24.65;;;;;;;-0.33;70.67;98200.66;1815017;79;21200;-64
2021/04/28 03:33:03;;;;;;;39.20;25.70;;;;;;;-0.31;70.64;98198.86;1814814;79;20928;-64
2021/04/28 03:35:50;;;;;;;32.13;25.32;;;;;;;-0.27;70.66;98200.48;1814844;79;20972;-65
2021/04/28 03:38:41;;;;;;;54.80;33.80;;;;;;;-0.20;70.53;98199.41;1813538;79;21011;-64
2021/04/28 03:41:11;;;;;;;46.65;31.55;;;;;;;-0.13;70.43;98206.22;1815064;79;21007;-64
2021/04/28 03:43:40;;;;;;;47.75;30.95;;;;;;;-0.01;70.42;98211.14;1813323;78;21353;-64
2021/04/28 03:46:08;;;;;;;53.23;33.35;;;;;;;0.13;70.32;98201.50;1805748;79;20949;-64
2021/04/28 03:48:40;;;;;;;51.88;32.73;;;;;;;0.34;70.04;98206.56;1805622;79;20988;-64
2021/04/28 03:51:09;;;;;;;42.98;28.60;;;;;;;0.59;69.37;98200.51;1805757;79;20917;-64
2021/04/28 03:53:55;;;;;;;26.50;19.62;;;;;;;0.84;68.69;98207.65;1805795;79;20905;-64
2021/04/28 03:56:25;;;;;;;27.73;19.05;;;;;;;1.12;68.04;98210.67;1805849;79;21410;-63
2021/04/28 03:58:54;;;;;;;25.27;20.68;;;;;;;1.35;67.20;98209.41;1805759;79;21012;-64
2021/04/28 04:01:22;;;;;;;35.28;22.10;;;;;;;1.63;66.74;98216.38;1805748;79;21418;-64
2021/04/28 04:03:50;;;;;;;27.90;21.77;;;;;;;1.89;65.92;98221.17;1805720;79;21039;-64
2021/04/28 04:06:36;;;;;;;30.05;22.77;;;;;;;2.15;65.25;98210.93;1805820;79;21473;-64
2021/04/28 04:09:11;;;;;;;47.75;33.40;;;;;;;2.46;64.71;98214.58;1804121;79;21367;-63
2021/04/28 04:11:40;;;;;;;57.85;39.30;;;;;;;2.77;63.58;98210.67;1805700;79;21011;-64
2021/04/28 04:14:11;;;;;;;50.78;27.00;;;;;;;3.05;62.60;98206.89;1805778;79;20984;-64
2021/04/28 04:16:40;;;;;;;31.55;21.77;;;;;;;3.36;62.11;98210.87;1805656;79;20972;-65
2021/04/28 04:19:10;;;;;;;28.00;20.27;;;;;;;3.62;61.16;98209.27;1805807;79;20961;-65
2021/04/28 04:21:41;;;;;;;29.85;21.30;;;;;;;3.91;60.28;98205.80;1804630;79;21451;-64
2021/04/28 04:24:16;;;;;;;25.45;20.72;;;;;;;4.17;59.65;98207.72;1803984;79;21489;-64
2021/04/28 04:26:46;;;;;;;40.95;22.90;;;;;;;4.41;58.60;98203.03;1803376;79;20936;-64
2021/04/28 04:29:35;;;;;;;33.02;18.82;;;;;;;4.62;58.15;98207.81;1805665;79;20909;-64
2021/04/28 04:32:22;;;;;;;26.40;19.45;;;;;;;4.86;57.87;98206.22;1805856;79;20916;-65
2021/04/28 04:35:00;;;;;;;24.27;17.90;;;;;;;5.11;56.74;98207.20;1796278;79;21406;-65
2021/04/28 04:37:46;;;;;;;21.12;16.32;;;;;;;5.33;56.67;98205.64;1805707;79;20889;-65
2021/04/28 04:40:20;;;;;;;36.55;17.57;;;;;;;5.60;56.22;98209.14;1803684;79;21014;-65
2021/04/28 04:42:57;;;;;;;27.17;15.50;;;;;;;5.81;54.92;98203.63;1794674;79;20937;-65
2021/04/28 04:45:35;;;;;;;24.67;16.57;;;;;;;5.98;54.51;98204.09;1750226;81;20952;-64
2021/04/28 04:48:06;;;;;;;17.07;12.60;;;;;;;6.13;54.60;98204.13;1814880;79;21354;-65
2021/04/28 04:50:35;;;;;;;58.85;17.52;;;;;;;6.34;53.90;98202.56;1814844;79;20924;-65
2021/04/28 04:53:05;;;;;;;19.77;14.47;;;;;;;6.53;53.87;98208.18;1814839;79;20963;-65
2021/04/28 04:55:33;;;;;;;21.75;14.40;;;;;;;6.74;53.36;98205.64;1814920;79;20960;-65
2021/04/28 04:58:00;;;;;;;15.18;13.53;;;;;;;6.97;52.64;98198.11;1814803;79;20972;-64
2021/04/28 05:00:28;;;;;;;13.58;12.20;;;;;;;7.20;51.65;98204.31;1814911;79;22247;-67
2021/04/28 05:02:57;;;;;;;18.80;14.07;;;;;;;7.38;51.58;98196.19;1814730;79;20927;-64
2021/04/28 05:05:25;;;;;;;16.48;13.85;;;;;;;7.57;51.13;98195.94;1814819;78;20932;-64
2021/04/28 05:07:53;;;;;;;18.37;15.18;;;;;;;7.77;50.73;98199.59;1814781;79;20979;-64
2021/04/28 05:10:22;;;;;;;18.82;13.95;;;;;;;7.98;50.12;98205.03;1814917;79;20987;-65
2021/04/28 05:12:49;;;;;;;20.90;15.13;;;;;;;8.14;49.71;98192.44;1814794;78;21098;-64
2021/04/28 05:15:18;;;;;;;18.90;14.25;;;;;;;8.33;48.88;98197.00;1814852;79;20920;-64
2021/04/28 05:17:47;;;;;;;21.42;13.08;;;;;;;8.57;48.41;98204.94;1814786;79;20900;-64
2021/04/28 05:20:18;;;;;;;18.02;15.95;;;;;;;8.71;48.02;98192.85;1814741;79;20916;-65
2021/04/28 05:22:49;;;;;;;23.32;15.15;;;;;;;8.84;47.87;98202.28;1814863;78;20913;-65
2021/04/28 05:25:20;;;;;;;19.92;12.95;;;;;;;8.98;47.65;98202.22;1793955;79;21367;-65
2021/04/28 05:27:48;;;;;;;16.12;13.72;;;;;;;9.16;46.85;98199.28;1814702;79;21007;-65
2021/04/28 05:30:20;;;;;;;17.10;14.28;;;;;;;9.33;46.34;98196.81;1814792;79;21461;-65
2021/04/28 05:32:48;;;;;;;24.57;20.00;;;;;;;9.49;46.13;98196.17;1814870;79;21327;-65
2021/04/28 05:35:18;;;;;;;24.25;17.85;;;;;;;9.68;46.10;98193.09;1814862;79;20913;-65
2021/04/28 05:37:49;;;;;;;20.70;13.55;;;;;;;9.80;45.63;98197.22;1814775;78;21354;-65
2021/04/28 05:40:17;;;;;;;17.55;13.78;;;;;;;9.93;45.14;98202.09;1814774;79;20893;-64
2021/04/28 05:42:45;;;;;;;13.60;12.30;;;;;;;9.98;44.06;98193.26;1814771;79;20912;-64
2021/04/28 05:45:15;;;;;;;13.55;12.13;;;;;;;10.23;44.32;98188.81;1814794;79;21540;-66
2021/04/28 05:47:43;;;;;;;19.70;13.98;;;;;;;10.32;43.99;98189.50;1814926;79;21542;-65
2021/04/28 05:50:18;;;;;;;15.60;13.05;;;;;;;10.37;43.92;98182.49;1814835;79;22625;-65
2021/04/28 05:52:49;;;;;;;15.63;13.75;;;;;;;10.44;43.96;98185.97;1814343;79;20987;-66
2021/04/28 05:55:19;;;;;;;13.48;11.88;;;;;;;10.53;43.31;98179.09;1814855;79;20924;-67
2021/04/28 05:57:47;;;;;;;13.43;10.78;;;;;;;10.53;42.56;98182.23;1814976;79;20928;-64
2021/04/28 06:00:19;;;;;;;17.35;12.70;;;;;;;10.54;42.60;98188.00;1814995;79;20924;-64
2021/04/28 06:02:46;;;;;;;17.32;12.88;;;;;;;10.48;42.77;98189.28;1815030;79;20928;-65
2021/04/28 06:05:14;;;;;;;14.70;12.23;;;;;;;10.49;43.70;98185.14;1814963;79;20995;-65
2021/04/28 06:07:44;;;;;;;17.95;11.53;;;;;;;10.61;43.84;98183.88;1814947;79;20935;-65
2021/04/28 06:10:15;;;;;;;13.03;11.73;;;;;;;10.70;43.13;98176.49;1814927;79;20972;-65
2021/04/28 06:12:46;;;;;;;13.13;11.10;;;;;;;10.76;43.25;98174.70;1814944;79;20960;-65
2021/04/28 06:15:16;;;;;;;11.35;10.20;;;;;;;10.88;42.66;98179.67;1815078;79;22326;-65
2021/04/28 06:17:44;;;;;;;15.53;11.03;;;;;;;11.11;42.69;98184.64;1814858;79;20988;-66
2021/04/28 06:20:16;;;;;;;14.70;10.85;;;;;;;11.25;42.21;98185.45;1815087;78;21410;-65
2021/04/28 06:22:44;;;;;;;12.45;10.63;;;;;;;11.47;41.70;98182.84;1814860;79;20979;-66
2021/04/28 06:25:14;;;;;;;16.60;10.70;;;;;;;11.62;40.19;98183.97;1814991;79;21020;-64
2021/04/28 06:27:44;;;;;;;12.33;9.93;;;;;;;11.69;40.51;98176.66;1814910;79;22311;-66
2021/04/28 06:30:15;;;;;;;13.83;10.32;;;;;;;11.85;40.63;98181.70;1814957;79;20936;-67
2021/04/28 06:32:46;;;;;;;15.45;10.40;;;;;;;11.98;40.96;98180.78;1815055;79;20904;-69
2021/04/28 06:35:15;;;;;;;9.88;8.98;;;;;;;12.11;40.26;98181.54;1815046;79;20920;-67
2021/04/28 06:37:44;;;;;;;11.95;10.25;;;;;;;12.21;38.90;98167.70;1814959;79;20967;-67
2021/04/28 06:40:13;;;;;;;19.37;10.35;;;;;;;12.40;39.29;98172.96;1814929;79;21339;-67
2021/04/28 06:42:41;;;;;;;16.62;11.05;;;;;;;12.49;39.48;98172.22;1814940;79;21011;-67
2021/04/28 06:45:08;;;;;;;12.95;10.72;;;;;;;12.67;39.56;98169.86;1811586;78;20897;-66
2021/04/28 06:47:38;;;;;;;13.68;9.85;;;;;;;12.76;38.45;98178.54;1805721;79;21397;-67
2021/04/28 06:50:09;;;;;;;10.78;8.93;;;;;;;12.88;38.18;98177.16;1805848;79;20920;-66
2021/04/28 06:52:40;;;;;;;17.40;10.00;;;;;;;12.97;38.04;98170.52;1805801;79;21438;-66
2021/04/28 06:55:12;;;;;;;16.67;9.45;;;;;;;12.95;38.39;98176.53;1805717;79;20936;-67
2021/04/28 06:57:51;;;;;;;12.45;11.12;;;;;;;12.94;38.62;98186.94;1804778;79;21007;-67
2021/04/28 07:00:15;;;;;;;15.60;10.80;;;;;;;12.94;38.37;98184.24;1805234;79;21000;-68
2021/04/28 07:02:47;;;;;;;15.08;11.45;;;;;;;13.01;38.99;98177.38;1805938;79;25394;-66
2021/04/28 07:05:15;;;;;;;11.68;10.58;;;;;;;13.12;38.58;98183.23;1805817;79;22480;-67
2021/04/28 07:07:42;;;;;;;11.97;10.43;;;;;;;13.19;38.18;98182.22;1805675;79;20992;-66
2021/04/28 07:10:13;;;;;;;16.87;10.70;;;;;;;13.29;38.53;98179.13;1805833;79;20984;-66
2021/04/28 07:12:42;;;;;;;19.75;12.03;;;;;;;13.35;38.95;98179.98;1805895;79;21465;-67
2021/04/28 07:15:10;;;;;;;12.13;11.05;;;;;;;13.44;38.29;98178.84;1805953;79;21022;-67
2021/04/28 07:17:39;;;;;;;13.28;11.00;;;;;;;13.55;37.96;98172.88;1805884;79;21178;-67
2021/04/28 07:20:08;;;;;;;12.13;10.88;;;;;;;13.62;38.50;98174.59;1805772;78;20947;-68
2021/04/28 07:22:36;;;;;;;12.07;10.88;;;;;;;13.70;38.43;98169.85;1805805;78;20925;-66
2021/04/28 07:25:08;;;;;;;17.85;11.12;;;;;;;13.82;38.17;98170.15;1805781;79;20881;-68
2021/04/28 07:27:43;;;;;;;12.65;11.38;;;;;;;13.95;37.77;98176.69;1805833;79;20885;-68
2021/04/28 07:30:15;;;;;;;16.35;11.45;;;;;;;14.04;36.92;98171.84;1805822;79;21323;-67
2021/04/28 07:32:42;;;;;;;15.10;10.60;;;;;;;14.16;37.05;98163.17;1805694;79;20960;-68
2021/04/28 07:35:13;;;;;;;14.38;10.82;;;;;;;14.31;38.02;98165.00;1805599;79;21023;-66
2021/04/28 07:37:42;;;;;;;11.57;9.43;;;;;;;14.38;37.25;98164.83;1805843;79;21552;-68
2021/04/28 07:40:12;;;;;;;13.95;10.60;;;;;;;14.51;36.58;98166.45;1805842;79;20873;-69
2021/04/28 07:42:41;;;;;;;12.68;11.38;;;;;;;14.61;36.66;98164.64;1805743;79;21356;-67
2021/04/28 07:45:13;;;;;;;17.37;11.30;;;;;;;14.70;36.52;98165.17;1807918;79;21023;-68
2021/04/28 07:47:43;;;;;;;14.43;10.10;;;;;;;14.83;37.37;98172.18;1814888;79;21054;-68
2021/04/28 07:50:16;;;;;;;12.37;10.23;;;;;;;14.92;36.79;98163.23;1814853;79;20920;-68
2021/04/28 07:52:44;;;;;;;15.53;10.98;;;;;;;15.03;36.28;98159.05;1814895;79;20920;-67
2021/04/28 07:55:12;;;;;;;11.73;10.15;;;;;;;15.11;36.34;98160.55;1814973;79;22114;-68
2021/04/28 07:57:43;;;;;;;11.85;10.35;;;;;;;15.22;35.58;98157.36;1814793;79;21019;-67
2021/04/28 08:00:12;;;;;;;10.43;9.35;;;;;;;15.28;35.18;98159.50;1814871;79;20908;-69
2021/04/28 08:02:41;;;;;;;10.93;9.28;;;;;;;15.35;35.45;98153.86;1814834;79;21019;-67
2021/04/28 08:05:13;;;;;;;10.72;9.75;;;;;;;15.43;36.09;98144.52;1814946;79;20924;-68
2021/04/28 08:07:43;;;;;;;;;;;;;;;15.45;35.11;98147.95;1817743;79;21267;-68
2021/04/28 08:10:11;;;;;;;19.15;9.48;;;;;;;15.50;34.98;98140.25;1815007;79;20129;-69
2021/04/28 08:12:39;;;;;;;9.53;8.63;;;;;;;15.40;35.49;98142.09;1814967;79;21399;-69
2021/04/28 08:15:09;;;;;;;10.53;8.50;;;;;;;15.35;35.46;98135.77;1814871;79;20913;-68
2021/04/28 08:17:38;;;;;;;13.28;8.33;;;;;;;15.40;36.14;98146.16;1814887;79;21358;-67
2021/04/28 08:20:08;;;;;;;16.90;9.03;;;;;;;15.45;35.85;98141.20;1814840;79;21362;-68
2021/04/28 08:22:36;;;;;;;11.30;8.95;;;;;;;15.54;35.91;98136.27;1814794;79;20939;-69
2021/04/28 08:25:08;;;;;;;9.35;8.23;;;;;;;15.64;35.06;98128.13;1814885;79;21011;-66
2021/04/28 08:27:36;;;;;;;8.88;8.05;;;;;;;15.71;34.57;98130.59;1814867;79;20916;-68
2021/04/28 08:30:08;;;;;;;8.28;7.47;;;;;;;15.69;33.80;98129.05;1814864;79;20983;-70
2021/04/28 08:32:35;;;;;;;8.15;7.30;;;;;;;15.77;34.30;98123.78;1814804;79;21327;-68
2021/04/28 08:35:05;;;;;;;8.68;7.83;;;;;;;15.75;35.05;98132.53;1814769;79;20987;-67
2021/04/28 08:37:32;;;;;;;15.43;8.25;;;;;;;15.76;34.16;98135.58;1814904;79;21007;-68
2021/04/28 08:40:00;;;;;;;8.50;7.47;;;;;;;15.77;33.63;98126.50;1814827;79;20928;-68
2021/04/28 08:42:28;;;;;;;9.98;8.55;;;;;;;15.86;34.05;98131.04;1814905;79;20933;-68
2021/04/28 08:44:57;;;;;;;9.75;8.45;;;;;;;15.86;34.52;98122.91;1814823;78;21374;-67
2021/04/28 08:47:25;;;;;;;11.78;9.25;;;;;;;15.87;34.60;98119.18;1778989;79;20968;-68
2021/04/28 08:49:56;;;;;;;10.48;9.48;;;;;;;15.86;34.28;98116.63;1814846;79;20967;-68
2021/04/28 08:52:23;;;;;;;8.33;7.35;;;;;;;15.82;35.01;98110.66;1814590;79;21472;-67
2021/04/28 08:54:51;;;;;;;13.28;8.45;;;;;;;15.88;34.85;98111.42;1813894;79;20984;-69
2021/04/28 08:57:19;;;;;;;13.30;8.75;;;;;;;15.87;34.31;98109.70;1814609;79;22684;-68
2021/04/28 08:59:48;;;;;;;8.20;7.40;;;;;;;15.88;33.95;98113.28;1813948;79;20976;-67
2021/04/28 09:02:22;;;;;;;12.93;7.97;;;;;;;15.89;33.06;98102.78;1814278;79;20983;-68
2021/04/28 09:05:13;;;;;;;10.65;7.47;;;;;;;15.87;34.81;98116.48;1814876;79;21544;-68
2021/04/28 09:07:43;;;;;;;9.83;6.42;;;;;;;15.81;35.50;98114.35;1814549;79;21023;-68
2021/04/28 09:10:17;;;;;;;11.75;6.80;;;;;;;15.82;35.24;98100.33;1814867;79;21351;-68
2021/04/28 09:13:07;;;;;;;8.88;6.62;;;;;;;15.73;33.33;98106.08;1814081;79;21623;-68
2021/04/28 09:15:56;;;;;;;8.85;6.95;;;;;;;15.63;34.09;98106.11;1813805;79;21489;-69
2021/04/28 09:18:35;;;;;;;10.23;7.72;;;;;;;15.54;34.50;98101.56;1814002;79;20988;-67
2021/04/28 09:21:12;;;;;;;14.93;7.72;;;;;;;15.50;34.55;98095.59;1814216;79;20983;-67
2021/04/28 09:24:22;;;;;;;8.80;7.85;;;;;;;15.45;36.21;98105.14;1813849;79;21244;-66
2021/04/28 09:27:10;;;;;;;11.85;6.72;;;;;;;15.42;35.66;98091.41;1814434;79;21489;-68
2021/04/28 09:30:10;;;;;;;16.20;7.58;;;;;;;15.41;35.76;98086.98;1820984;78;38673;-69
2021/04/28 09:32:46;;;;;;;22.05;7.00;;;;;;;15.43;34.67;98080.92;1809057;79;21477;-67
2021/04/28 09:35:15;;;;;;;7.60;6.75;;;;;;;15.52;35.40;98079.21;1808696;79;22175;-70
2021/04/28 09:37:56;;;;;;;7.92;6.53;;;;;;;15.57;35.40;98070.66;1808741;79;21722;-69
2021/04/28 09:40:56;;;;;;;7.70;6.90;;;;;;;15.60;35.24;98062.24;1798014;79;21019;-67
2021/04/28 09:43:20;;;;;;;7.08;6.08;;;;;;;15.65;35.00;98062.65;1808666;79;21016;-67
2021/04/28 09:45:50;;;;;;;9.88;5.62;;;;;;;15.67;34.96;98068.77;1808577;79;20992;-66
2021/04/28 09:48:21;;;;;;;13.70;6.20;;;;;;;15.71;34.79;98068.32;1808549;79;22235;-66
2021/04/28 09:50:52;;;;;;;6.45;5.62;;;;;;;15.71;34.11;98064.26;1808688;79;20928;-67
2021/04/28 09:53:26;;;;;;;7.22;5.10;;;;;;;15.74;34.73;98056.36;1806562;79;21046;-67
2021/04/28 09:55:55;;;;;;;9.20;6.12;;;;;;;15.75;35.22;98051.30;1808738;79;21544;-67
2021/04/28 09:58:49;;;;;;;8.15;5.92;;;;;;;15.75;34.39;98064.84;1808829;79;21000;-69
2021/04/28 10:01:39;;;;;;;10.60;6.65;;;;;;;15.78;34.36;98053.75;1808815;79;21428;-69
2021/04/28 10:04:10;;;;;;;8.70;5.92;;;;;;;15.67;35.34;98056.58;1808643;79;21051;-71
2021/04/28 10:06:51;;;;;;;10.08;8.88;;;;;;;15.66;34.65;98058.95;1808618;79;20972;-65
2021/04/28 10:09:30;;;;;;;9.75;6.30;;;;;;;15.57;34.78;98048.49;1808737;79;20971;-63
2021/04/28 10:12:00;;;;;;;7.30;6.25;;;;;;;15.50;35.39;98059.56;1808699;79;21600;-63
2021/04/28 10:14:29;;;;;;;13.88;6.12;;;;;;;15.49;35.52;98058.69;1808894;79;21350;-66
2021/04/28 10:17:00;;;;;;;7.00;5.80;;;;;;;15.49;36.32;98054.62;1808750;79;21648;-65
2021/04/28 10:19:31;;;;;;;;;;;;;;;15.52;36.97;98051.64;1811530;79;21007;-65
2021/04/28 10:22:12;;;;;;;15.15;7.30;;;;;;;15.51;35.17;98045.89;1808693;79;20225;-68
2021/04/28 10:24:56;;;;;;;16.70;9.90;;;;;;;15.48;35.57;98025.88;1774806;79;22801;-70
2021/04/28 10:27:27;;;;;;;13.47;5.50;;;;;;;15.41;36.59;98038.28;1749258;82;21339;-69
2021/04/28 10:29:56;;;;;;;8.98;5.97;;;;;;;15.40;36.81;98044.67;1749839;82;21371;-68
2021/04/28 10:32:23;;;;;;;6.70;5.55;;;;;;;15.40;36.23;98043.33;1749515;81;21047;-69
2021/04/28 10:35:17;;;;;;;8.73;5.92;;;;;;;15.39;35.87;98038.94;1749845;82;21012;-69
2021/04/28 10:37:50;;;;;;;8.40;6.10;;;;;;;15.36;36.12;98052.24;1750114;82;21371;-73
2021/04/28 10:40:20;;;;;;;10.65;6.33;;;;;;;15.35;36.16;98040.21;1749211;82;21060;-71
2021/04/28 10:42:49;;;;;;;9.88;7.28;;;;;;;15.29;35.75;98031.32;1748869;81;22473;-72
2021/04/28 10:45:30;;;;;;;9.63;6.05;;;;;;;15.31;36.79;98037.46;1719603;82;21019;-69
2021/04/28 10:47:57;;;;;;;12.85;6.85;;;;;;;15.32;36.87;98035.09;1748825;82;21627;-70
2021/04/28 10:50:28;;;;;;;7.90;6.15;;;;;;;15.39;37.44;98034.87;1748802;82;21510;-70
2021/04/28 10:53:01;;;;;;;11.63;6.62;;;;;;;15.44;37.40;98027.16;1748384;82;20996;-70
2021/04/28 10:55:54;;;;;;;9.95;6.80;;;;;;;15.52;36.64;98026.44;1749300;82;22282;-71
2021/04/28 10:58:35;;;;;;;7.60;5.97;;;;;;;15.54;36.11;98037.95;1748757;81;21011;-74
2021/04/28 11:01:11;;;;;;;7.50;5.78;;;;;;;15.54;36.53;98011.77;1749132;82;21015;-69
2021/04/28 11:03:48;;;;;;;8.98;6.37;;;;;;;15.54;35.69;98014.95;1748852;82;21024;-70
2021/04/28 11:06:28;;;;;;;8.63;6.17;;;;;;;15.56;36.05;98008.03;1748919;82;21580;-70
2021/04/28 11:09:04;;;;;;;11.73;5.47;;;;;;;15.51;36.58;98012.06;1749570;82;21206;-70
2021/04/28 11:11:38;;;;;;;12.55;5.62;;;;;;;15.53;36.70;98014.11;1748523;82;21628;-73
2021/04/28 11:17:01;;;;;;;11.10;5.35;;;;;;;15.59;36.77;98010.45;1744277;82;21043;-67
2021/04/28 11:19:38;;;;;;;;;;;;;;;15.63;35.45;98003.23;1751849;82;21031;-68
2021/04/28 11:22:21;;;;;;;6.67;4.90;;;;;;;15.63;37.42;98001.05;1748953;82;21426;-67
2021/04/28 11:25:16;;;;;;;7.85;5.55;;;;;;;15.68;37.53;98000.93;1750053;81;20984;-68
2021/04/28 11:27:54;;;;;;;6.70;5.53;;;;;;;15.73;36.13;97991.02;1749937;82;21059;-70
2021/04/28 11:30:41;;;;;;;11.80;6.03;;;;;;;15.76;35.44;97997.48;1749953;82;21323;-67
2021/04/28 11:33:30;;;;;;;8.55;5.80;;;;;;;15.76;35.18;97988.52;1749744;82;20988;-66
2021/04/28 11:36:06;;;;;;;12.40;4.62;;;;;;;15.77;35.60;97985.70;1749399;82;21378;-66
2021/04/28 11:38:40;;;;;;;5.80;4.72;;;;;;;15.81;36.28;97980.83;1749472;82;21059;-67
2021/04/28 11:41:13;;;;;;;11.75;6.65;;;;;;;15.85;34.90;97981.73;1749207;82;20991;-67
2021/04/28 11:43:57;;;;;;;9.43;5.75;;;;;;;15.88;35.47;97978.72;1748894;82;21067;-71
2021/04/28 11:46:31;;;;;;;7.15;4.37;;;;;;;15.90;35.08;97974.52;1749203;82;21010;-70
2021/04/28 11:49:00;;;;;;;16.97;9.43;;;;;;;15.94;35.19;97970.52;1749221;82;21207;-71
2021/04/28 11:51:30;;;;;;;7.75;5.15;;;;;;;15.94;35.20;97962.38;1749211;82;20936;-71